sensor_id;sensor_type;location;lat;lon;timestamp;P1;durP1;ratioP1;P2;durP2;ratioP2
6015;SDS011;3036;49.960;8.454;2023-12-20T00:02:09;2.10;;;2.00;;
6015;SDS011;3036;49.960;8.454;2023-12-20T00:04:36;2.70;;;2.50;;
6015;SDS011;3036;49.960;8.454;2023-12-20T00:07:03;2.50;;;2.40;;
6015;SDS011;3036;49.960;8.454;2023-12-20T00:09:29;2.67;;;2.47;;
6015;SDS011;3036;49.960;8.454;2023-12-20T00:11:56;2.20;;;2.10;;
6015;SDS011;3036;49.960;8.454;2023-12-20T00:14:23;2.03;;;1.93;;
6015;SDS011;3036;49.960;8.454;2023-12-20T00:16:50;2.80;;;2.07;;
6015;SDS011;3036;49.960;8.454;2023-12-20T00:19:18;1.80;;;1.70;;
6015;SDS011;3036;49.960;8.454;2023-12-20T00:21:46;1.50;;;1.50;;
6015;SDS011;3036;49.960;8.454;2023-12-20T00:24:13;2.00;;;1.90;;
6015;SDS011;3036;49.960;8.454;2023-12-20T00:26:40;1.80;;;1.80;;
6015;SDS011;3036;49.960;8.454;2023-12-20T00:29:07;1.80;;;1.80;;
6015;SDS011;3036;49.960;8.454;2023-12-20T00:31:34;1.47;;;1.37;;
6015;SDS011;3036;49.960;8.454;2023-12-20T00:34:01;2.00;;;1.90;;
6015;SDS011;3036;49.960;8.454;2023-12-20T00:36:30;2.00;;;1.83;;
6015;SDS011;3036;49.960;8.454;2023-12-20T00:38:57;1.33;;;1.33;;
6015;SDS011;3036;49.960;8.454;2023-12-20T00:41:24;1.57;;;1.57;;
6015;SDS011;3036;49.960;8.454;2023-12-20T00:43:51;2.80;;;1.60;;
6015;SDS011;3036;49.960;8.454;2023-12-20T00:46:18;1.43;;;1.43;;
6015;SDS011;3036;49.960;8.454;2023-12-20T00:48:45;1.80;;;1.70;;
6015;SDS011;3036;49.960;8.454;2023-12-20T00:51:12;1.40;;;1.40;;
6015;SDS011;3036;49.960;8.454;2023-12-20T00:53:40;1.57;;;1.57;;
6015;SDS011;3036;49.960;8.454;2023-12-20T00:56:08;1.60;;;1.50;;
6015;SDS011;3036;49.960;8.454;2023-12-20T00:58:35;1.57;;;1.57;;
6015;SDS011;3036;49.960;8.454;2023-12-20T01:01:02;1.40;;;1.33;;
6015;SDS011;3036;49.960;8.454;2023-12-20T01:03:29;1.10;;;1.10;;
6015;SDS011;3036;49.960;8.454;2023-12-20T01:05:56;2.43;;;1.37;;
6015;SDS011;3036;49.960;8.454;2023-12-20T01:08:23;2.20;;;1.90;;
6015;SDS011;3036;49.960;8.454;2023-12-20T01:10:51;1.50;;;1.40;;
6015;SDS011;3036;49.960;8.454;2023-12-20T01:13:18;1.73;;;1.70;;
6015;SDS011;3036;49.960;8.454;2023-12-20T01:15:45;3.77;;;2.27;;
6015;SDS011;3036;49.960;8.454;2023-12-20T01:18:13;1.50;;;1.50;;
6015;SDS011;3036;49.960;8.454;2023-12-20T01:20:40;1.30;;;1.30;;
6015;SDS011;3036;49.960;8.454;2023-12-20T01:23:07;1.57;;;1.47;;
6015;SDS011;3036;49.960;8.454;2023-12-20T01:25:34;1.73;;;1.63;;
6015;SDS011;3036;49.960;8.454;2023-12-20T01:28:03;1.30;;;1.30;;
6015;SDS011;3036;49.960;8.454;2023-12-20T01:30:30;1.40;;;1.40;;
6015;SDS011;3036;49.960;8.454;2023-12-20T01:32:59;1.53;;;1.43;;
6015;SDS011;3036;49.960;8.454;2023-12-20T01:35:26;1.33;;;1.13;;
6015;SDS011;3036;49.960;8.454;2023-12-20T01:37:53;1.20;;;1.20;;
6015;SDS011;3036;49.960;8.454;2023-12-20T01:40:21;1.40;;;1.33;;
6015;SDS011;3036;49.960;8.454;2023-12-20T01:42:57;0.87;;;0.87;;
6015;SDS011;3036;49.960;8.454;2023-12-20T01:45:25;1.40;;;1.40;;
6015;SDS011;3036;49.960;8.454;2023-12-20T01:47:52;1.00;;;1.00;;
6015;SDS011;3036;49.960;8.454;2023-12-20T01:50:20;1.27;;;1.27;;
6015;SDS011;3036;49.960;8.454;2023-12-20T01:52:47;1.13;;;1.13;;
6015;SDS011;3036;49.960;8.454;2023-12-20T01:55:17;0.93;;;0.93;;
6015;SDS011;3036;49.960;8.454;2023-12-20T01:57:44;1.40;;;1.40;;
6015;SDS011;3036;49.960;8.454;2023-12-20T02:00:12;1.03;;;1.03;;
6015;SDS011;3036;49.960;8.454;2023-12-20T02:02:41;1.27;;;1.17;;
6015;SDS011;3036;49.960;8.454;2023-12-20T02:05:08;0.73;;;0.73;;
6015;SDS011;3036;49.960;8.454;2023-12-20T02:07:35;1.07;;;1.07;;
6015;SDS011;3036;49.960;8.454;2023-12-20T02:10:03;1.00;;;1.00;;
6015;SDS011;3036;49.960;8.454;2023-12-20T02:12:30;2.70;;;1.00;;
6015;SDS011;3036;49.960;8.454;2023-12-20T02:14:57;1.20;;;1.10;;
6015;SDS011;3036;49.960;8.454;2023-12-20T02:17:24;1.30;;;1.30;;
6015;SDS011;3036;49.960;8.454;2023-12-20T02:19:53;1.33;;;1.17;;
6015;SDS011;3036;49.960;8.454;2023-12-20T02:22:21;1.10;;;1.10;;
6015;SDS011;3036;49.960;8.454;2023-12-20T02:24:48;1.27;;;1.27;;
6015;SDS011;3036;49.960;8.454;2023-12-20T02:27:15;1.13;;;1.13;;
6015;SDS011;3036;49.960;8.454;2023-12-20T02:29:44;1.10;;;1.10;;
6015;SDS011;3036;49.960;8.454;2023-12-20T02:32:13;1.30;;;1.20;;
6015;SDS011;3036;49.960;8.454;2023-12-20T02:34:40;1.20;;;1.20;;
6015;SDS011;3036;49.960;8.454;2023-12-20T02:37:07;1.40;;;1.30;;
6015;SDS011;3036;49.960;8.454;2023-12-20T02:39:35;1.30;;;1.20;;
6015;SDS011;3036;49.960;8.454;2023-12-20T02:42:03;1.03;;;1.03;;
6015;SDS011;3036;49.960;8.454;2023-12-20T02:44:30;1.07;;;1.07;;
6015;SDS011;3036;49.960;8.454;2023-12-20T02:46:57;1.20;;;1.03;;
6015;SDS011;3036;49.960;8.454;2023-12-20T02:49:24;2.83;;;1.00;;
6015;SDS011;3036;49.960;8.454;2023-12-20T02:51:51;1.07;;;1.07;;
6015;SDS011;3036;49.960;8.454;2023-12-20T02:54:18;1.10;;;1.10;;
6015;SDS011;3036;49.960;8.454;2023-12-20T02:56:46;0.87;;;0.87;;
6015;SDS011;3036;49.960;8.454;2023-12-20T02:59:13;1.00;;;1.00;;
6015;SDS011;3036;49.960;8.454;2023-12-20T03:01:41;0.80;;;0.80;;
6015;SDS011;3036;49.960;8.454;2023-12-20T03:04:07;1.10;;;1.10;;
6015;SDS011;3036;49.960;8.454;2023-12-20T03:06:34;1.27;;;1.27;;
6015;SDS011;3036;49.960;8.454;2023-12-20T03:09:02;1.90;;;1.27;;
6015;SDS011;3036;49.960;8.454;2023-12-20T03:11:29;1.20;;;1.20;;
6015;SDS011;3036;49.960;8.454;2023-12-20T03:13:57;1.00;;;1.00;;
6015;SDS011;3036;49.960;8.454;2023-12-20T03:16:31;0.90;;;0.90;;
6015;SDS011;3036;49.960;8.454;2023-12-20T03:18:58;0.80;;;0.80;;
6015;SDS011;3036;49.960;8.454;2023-12-20T03:21:25;1.20;;;1.20;;
6015;SDS011;3036;49.960;8.454;2023-12-20T03:23:52;0.97;;;0.97;;
6015;SDS011;3036;49.960;8.454;2023-12-20T03:26:19;1.10;;;1.10;;
6015;SDS011;3036;49.960;8.454;2023-12-20T03:28:49;1.00;;;1.00;;
6015;SDS011;3036;49.960;8.454;2023-12-20T03:31:18;1.10;;;1.10;;
6015;SDS011;3036;49.960;8.454;2023-12-20T03:33:46;1.00;;;1.00;;
6015;SDS011;3036;49.960;8.454;2023-12-20T03:36:13;6.47;;;0.80;;
6015;SDS011;3036;49.960;8.454;2023-12-20T03:38:40;1.20;;;1.10;;
6015;SDS011;3036;49.960;8.454;2023-12-20T03:41:07;1.10;;;1.10;;
6015;SDS011;3036;49.960;8.454;2023-12-20T03:43:34;0.90;;;0.90;;
6015;SDS011;3036;49.960;8.454;2023-12-20T03:46:01;1.17;;;1.17;;
6015;SDS011;3036;49.960;8.454;2023-12-20T03:48:30;0.90;;;0.90;;
6015;SDS011;3036;49.960;8.454;2023-12-20T03:54:00;0.93;;;0.93;;
6015;SDS011;3036;49.960;8.454;2023-12-20T03:56:27;1.73;;;1.03;;
6015;SDS011;3036;49.960;8.454;2023-12-20T03:58:54;0.90;;;0.90;;
6015;SDS011;3036;49.960;8.454;2023-12-20T04:01:21;0.80;;;0.80;;
6015;SDS011;3036;49.960;8.454;2023-12-20T04:03:50;1.00;;;1.00;;
6015;SDS011;3036;49.960;8.454;2023-12-20T04:06:17;0.90;;;0.90;;
6015;SDS011;3036;49.960;8.454;2023-12-20T04:08:44;2.30;;;0.90;;
6015;SDS011;3036;49.960;8.454;2023-12-20T04:11:11;0.87;;;0.87;;
6015;SDS011;3036;49.960;8.454;2023-12-20T04:13:38;1.20;;;1.10;;
6015;SDS011;3036;49.960;8.454;2023-12-20T04:16:05;0.90;;;0.90;;
6015;SDS011;3036;49.960;8.454;2023-12-20T04:18:32;1.17;;;1.17;;
6015;SDS011;3036;49.960;8.454;2023-12-20T04:21:01;0.90;;;0.90;;
6015;SDS011;3036;49.960;8.454;2023-12-20T04:23:28;2.40;;;1.23;;
6015;SDS011;3036;49.960;8.454;2023-12-20T04:25:55;1.20;;;1.20;;
6015;SDS011;3036;49.960;8.454;2023-12-20T04:28:22;1.40;;;1.40;;
6015;SDS011;3036;49.960;8.454;2023-12-20T04:30:49;1.00;;;1.00;;
6015;SDS011;3036;49.960;8.454;2023-12-20T04:33:16;0.87;;;0.87;;
6015;SDS011;3036;49.960;8.454;2023-12-20T04:35:43;1.00;;;1.00;;
6015;SDS011;3036;49.960;8.454;2023-12-20T04:38:12;0.63;;;0.63;;
6015;SDS011;3036;49.960;8.454;2023-12-20T04:40:39;0.60;;;0.60;;
6015;SDS011;3036;49.960;8.454;2023-12-20T04:43:06;0.80;;;0.80;;
6015;SDS011;3036;49.960;8.454;2023-12-20T04:45:33;0.53;;;0.53;;
6015;SDS011;3036;49.960;8.454;2023-12-20T04:48:01;0.80;;;0.80;;
6015;SDS011;3036;49.960;8.454;2023-12-20T04:50:28;0.70;;;0.70;;
6015;SDS011;3036;49.960;8.454;2023-12-20T04:52:55;1.20;;;1.10;;
6015;SDS011;3036;49.960;8.454;2023-12-20T04:55:23;1.83;;;1.73;;
6015;SDS011;3036;49.960;8.454;2023-12-20T04:57:50;1.77;;;1.77;;
6015;SDS011;3036;49.960;8.454;2023-12-20T05:00:17;1.50;;;1.50;;
6015;SDS011;3036;49.960;8.454;2023-12-20T05:02:44;1.10;;;1.10;;
6015;SDS011;3036;49.960;8.454;2023-12-20T05:05:11;0.80;;;0.80;;
6015;SDS011;3036;49.960;8.454;2023-12-20T05:07:40;1.60;;;1.03;;
6015;SDS011;3036;49.960;8.454;2023-12-20T05:10:07;2.13;;;1.00;;
6015;SDS011;3036;49.960;8.454;2023-12-20T05:12:36;1.43;;;0.90;;
6015;SDS011;3036;49.960;8.454;2023-12-20T05:15:03;3.70;;;0.70;;
6015;SDS011;3036;49.960;8.454;2023-12-20T05:17:30;1.60;;;1.00;;
6015;SDS011;3036;49.960;8.454;2023-12-20T05:19:57;2.57;;;0.87;;
6015;SDS011;3036;49.960;8.454;2023-12-20T05:22:24;0.70;;;0.70;;
6015;SDS011;3036;49.960;8.454;2023-12-20T05:24:52;0.90;;;0.90;;
6015;SDS011;3036;49.960;8.454;2023-12-20T05:27:19;3.03;;;1.00;;
6015;SDS011;3036;49.960;8.454;2023-12-20T05:29:48;1.67;;;1.23;;
6015;SDS011;3036;49.960;8.454;2023-12-20T05:32:15;5.37;;;2.53;;
6015;SDS011;3036;49.960;8.454;2023-12-20T05:34:42;3.63;;;2.10;;
6015;SDS011;3036;49.960;8.454;2023-12-20T05:37:09;1.37;;;1.37;;
6015;SDS011;3036;49.960;8.454;2023-12-20T05:39:36;2.20;;;1.00;;
6015;SDS011;3036;49.960;8.454;2023-12-20T05:42:03;3.43;;;1.27;;
6015;SDS011;3036;49.960;8.454;2023-12-20T05:44:31;1.07;;;1.00;;
6015;SDS011;3036;49.960;8.454;2023-12-20T05:46:59;0.77;;;0.70;;
6015;SDS011;3036;49.960;8.454;2023-12-20T05:49:26;0.97;;;0.80;;
6015;SDS011;3036;49.960;8.454;2023-12-20T05:51:53;0.80;;;0.67;;
6015;SDS011;3036;49.960;8.454;2023-12-20T05:54:20;6.30;;;0.77;;
6015;SDS011;3036;49.960;8.454;2023-12-20T05:56:48;7.70;;;0.80;;
6015;SDS011;3036;49.960;8.454;2023-12-20T05:59:15;2.57;;;0.70;;
6015;SDS011;3036;49.960;8.454;2023-12-20T06:01:42;0.50;;;0.50;;
6015;SDS011;3036;49.960;8.454;2023-12-20T06:04:11;1.67;;;0.90;;
6015;SDS011;3036;49.960;8.454;2023-12-20T06:06:40;6.30;;;2.57;;
6015;SDS011;3036;49.960;8.454;2023-12-20T06:09:07;4.70;;;1.00;;
6015;SDS011;3036;49.960;8.454;2023-12-20T06:11:34;1.67;;;0.87;;
6015;SDS011;3036;49.960;8.454;2023-12-20T06:14:01;2.13;;;1.00;;
6015;SDS011;3036;49.960;8.454;2023-12-20T06:16:28;0.87;;;0.53;;
6015;SDS011;3036;49.960;8.454;2023-12-20T06:18:55;2.90;;;0.77;;
6015;SDS011;3036;49.960;8.454;2023-12-20T06:21:23;0.50;;;0.50;;
6015;SDS011;3036;49.960;8.454;2023-12-20T06:23:50;1.23;;;0.77;;
6015;SDS011;3036;49.960;8.454;2023-12-20T06:26:17;4.57;;;0.70;;
6015;SDS011;3036;49.960;8.454;2023-12-20T06:28:44;1.17;;;0.77;;
6015;SDS011;3036;49.960;8.454;2023-12-20T06:31:12;1.50;;;0.70;;
6015;SDS011;3036;49.960;8.454;2023-12-20T06:33:39;2.63;;;0.90;;
6015;SDS011;3036;49.960;8.454;2023-12-20T06:36:07;0.97;;;0.90;;
6015;SDS011;3036;49.960;8.454;2023-12-20T06:38:35;2.90;;;0.60;;
6015;SDS011;3036;49.960;8.454;2023-12-20T06:41:02;1.10;;;1.00;;
6015;SDS011;3036;49.960;8.454;2023-12-20T06:43:30;0.90;;;0.90;;
6015;SDS011;3036;49.960;8.454;2023-12-20T06:45:57;1.97;;;0.90;;
6015;SDS011;3036;49.960;8.454;2023-12-20T06:48:24;0.87;;;0.87;;
6015;SDS011;3036;49.960;8.454;2023-12-20T06:50:51;1.57;;;1.07;;
6015;SDS011;3036;49.960;8.454;2023-12-20T06:53:18;3.47;;;1.20;;
6015;SDS011;3036;49.960;8.454;2023-12-20T06:55:46;5.20;;;1.20;;
6015;SDS011;3036;49.960;8.454;2023-12-20T06:58:13;0.70;;;0.70;;
6015;SDS011;3036;49.960;8.454;2023-12-20T07:00:41;1.90;;;1.00;;
6015;SDS011;3036;49.960;8.454;2023-12-20T07:03:08;1.10;;;0.93;;
6015;SDS011;3036;49.960;8.454;2023-12-20T07:05:36;0.83;;;0.83;;
6015;SDS011;3036;49.960;8.454;2023-12-20T07:08:03;4.13;;;1.13;;
6015;SDS011;3036;49.960;8.454;2023-12-20T07:10:30;3.40;;;0.80;;
6015;SDS011;3036;49.960;8.454;2023-12-20T07:12:58;1.20;;;1.00;;
6015;SDS011;3036;49.960;8.454;2023-12-20T07:15:25;1.17;;;0.90;;
6015;SDS011;3036;49.960;8.454;2023-12-20T07:17:54;0.77;;;0.77;;
6015;SDS011;3036;49.960;8.454;2023-12-20T07:20:21;1.67;;;1.20;;
6015;SDS011;3036;49.960;8.454;2023-12-20T07:22:48;1.67;;;0.97;;
6015;SDS011;3036;49.960;8.454;2023-12-20T07:25:15;0.90;;;0.90;;
6015;SDS011;3036;49.960;8.454;2023-12-20T07:27:43;1.90;;;1.40;;
6015;SDS011;3036;49.960;8.454;2023-12-20T07:30:11;1.20;;;1.10;;
6015;SDS011;3036;49.960;8.454;2023-12-20T07:32:38;2.60;;;1.00;;
6015;SDS011;3036;49.960;8.454;2023-12-20T07:35:06;0.80;;;0.80;;
6015;SDS011;3036;49.960;8.454;2023-12-20T07:37:33;1.53;;;0.90;;
6015;SDS011;3036;49.960;8.454;2023-12-20T07:40:00;5.47;;;1.00;;
6015;SDS011;3036;49.960;8.454;2023-12-20T07:42:28;0.80;;;0.80;;
6015;SDS011;3036;49.960;8.454;2023-12-20T07:44:55;0.60;;;0.60;;
6015;SDS011;3036;49.960;8.454;2023-12-20T07:47:23;1.70;;;0.90;;
6015;SDS011;3036;49.960;8.454;2023-12-20T07:49:50;0.90;;;0.90;;
6015;SDS011;3036;49.960;8.454;2023-12-20T07:52:17;0.60;;;0.60;;
6015;SDS011;3036;49.960;8.454;2023-12-20T07:54:44;3.50;;;0.80;;
6015;SDS011;3036;49.960;8.454;2023-12-20T07:57:12;1.80;;;0.80;;
6015;SDS011;3036;49.960;8.454;2023-12-20T07:59:39;3.73;;;1.00;;
6015;SDS011;3036;49.960;8.454;2023-12-20T08:02:06;2.87;;;1.07;;
6015;SDS011;3036;49.960;8.454;2023-12-20T08:04:34;1.63;;;0.90;;
6015;SDS011;3036;49.960;8.454;2023-12-20T08:07:01;2.10;;;1.30;;
6015;SDS011;3036;49.960;8.454;2023-12-20T08:09:28;4.33;;;1.07;;
6015;SDS011;3036;49.960;8.454;2023-12-20T08:11:56;2.07;;;1.10;;
6015;SDS011;3036;49.960;8.454;2023-12-20T08:14:24;1.57;;;1.47;;
6015;SDS011;3036;49.960;8.454;2023-12-20T08:16:51;7.57;;;1.20;;
6015;SDS011;3036;49.960;8.454;2023-12-20T08:19:18;2.20;;;1.13;;
6015;SDS011;3036;49.960;8.454;2023-12-20T08:21:47;2.40;;;1.30;;
6015;SDS011;3036;49.960;8.454;2023-12-20T08:24:14;1.20;;;1.10;;
6015;SDS011;3036;49.960;8.454;2023-12-20T08:26:41;1.50;;;1.40;;
6015;SDS011;3036;49.960;8.454;2023-12-20T08:29:08;3.30;;;1.57;;
6015;SDS011;3036;49.960;8.454;2023-12-20T08:31:35;2.13;;;1.43;;
6015;SDS011;3036;49.960;8.454;2023-12-20T08:34:02;2.60;;;1.90;;
6015;SDS011;3036;49.960;8.454;2023-12-20T08:36:29;2.20;;;1.57;;
6015;SDS011;3036;49.960;8.454;2023-12-20T08:38:57;7.13;;;1.13;;
6015;SDS011;3036;49.960;8.454;2023-12-20T08:41:25;2.63;;;1.33;;
6015;SDS011;3036;49.960;8.454;2023-12-20T08:43:52;1.77;;;1.17;;
6015;SDS011;3036;49.960;8.454;2023-12-20T08:46:19;4.43;;;1.70;;
6015;SDS011;3036;49.960;8.454;2023-12-20T08:48:46;2.30;;;1.40;;
6015;SDS011;3036;49.960;8.454;2023-12-20T08:51:13;2.17;;;1.63;;
6015;SDS011;3036;49.960;8.454;2023-12-20T08:53:40;1.37;;;1.33;;
6015;SDS011;3036;49.960;8.454;2023-12-20T08:56:11;1.33;;;1.20;;
6015;SDS011;3036;49.960;8.454;2023-12-20T08:58:38;3.07;;;1.30;;
6015;SDS011;3036;49.960;8.454;2023-12-20T09:01:05;2.40;;;1.60;;
6015;SDS011;3036;49.960;8.454;2023-12-20T09:03:32;3.70;;;1.70;;
6015;SDS011;3036;49.960;8.454;2023-12-20T09:05:59;5.93;;;1.93;;
6015;SDS011;3036;49.960;8.454;2023-12-20T09:08:27;6.60;;;2.67;;
6015;SDS011;3036;49.960;8.454;2023-12-20T09:10:54;4.60;;;2.50;;
6015;SDS011;3036;49.960;8.454;2023-12-20T09:13:22;2.07;;;1.50;;
6015;SDS011;3036;49.960;8.454;2023-12-20T09:15:53;2.37;;;2.17;;
6015;SDS011;3036;49.960;8.454;2023-12-20T09:18:20;2.33;;;2.10;;
6015;SDS011;3036;49.960;8.454;2023-12-20T09:20:47;3.37;;;2.47;;
6015;SDS011;3036;49.960;8.454;2023-12-20T09:23:14;2.90;;;2.70;;
6015;SDS011;3036;49.960;8.454;2023-12-20T09:25:42;3.03;;;1.70;;
6015;SDS011;3036;49.960;8.454;2023-12-20T09:28:09;3.13;;;1.57;;
6015;SDS011;3036;49.960;8.454;2023-12-20T09:30:37;3.13;;;1.77;;
6015;SDS011;3036;49.960;8.454;2023-12-20T09:33:05;5.57;;;2.00;;
6015;SDS011;3036;49.960;8.454;2023-12-20T09:35:33;2.43;;;1.93;;
6015;SDS011;3036;49.960;8.454;2023-12-20T09:38:00;3.20;;;1.73;;
6015;SDS011;3036;49.960;8.454;2023-12-20T09:40:27;4.43;;;1.67;;
6015;SDS011;3036;49.960;8.454;2023-12-20T09:42:56;3.67;;;2.13;;
6015;SDS011;3036;49.960;8.454;2023-12-20T09:45:23;2.40;;;1.50;;
6015;SDS011;3036;49.960;8.454;2023-12-20T09:47:52;1.80;;;1.67;;
6015;SDS011;3036;49.960;8.454;2023-12-20T09:50:19;2.00;;;1.70;;
6015;SDS011;3036;49.960;8.454;2023-12-20T09:52:47;4.33;;;1.90;;
6015;SDS011;3036;49.960;8.454;2023-12-20T09:55:16;5.57;;;2.70;;
6015;SDS011;3036;49.960;8.454;2023-12-20T09:57:44;4.30;;;2.67;;
6015;SDS011;3036;49.960;8.454;2023-12-20T10:00:11;6.33;;;2.57;;
6015;SDS011;3036;49.960;8.454;2023-12-20T10:02:39;3.67;;;2.30;;
6015;SDS011;3036;49.960;8.454;2023-12-20T10:05:09;4.63;;;3.17;;
6015;SDS011;3036;49.960;8.454;2023-12-20T10:07:41;2.67;;;2.33;;
6015;SDS011;3036;49.960;8.454;2023-12-20T10:10:08;4.83;;;2.07;;
6015;SDS011;3036;49.960;8.454;2023-12-20T10:12:37;3.33;;;1.50;;
6015;SDS011;3036;49.960;8.454;2023-12-20T10:15:05;4.03;;;3.00;;
6015;SDS011;3036;49.960;8.454;2023-12-20T10:17:32;3.87;;;2.13;;
6015;SDS011;3036;49.960;8.454;2023-12-20T10:19:59;2.23;;;1.83;;
6015;SDS011;3036;49.960;8.454;2023-12-20T10:22:27;2.90;;;1.90;;
6015;SDS011;3036;49.960;8.454;2023-12-20T10:24:56;5.13;;;1.70;;
6015;SDS011;3036;49.960;8.454;2023-12-20T10:27:23;3.00;;;1.90;;
6015;SDS011;3036;49.960;8.454;2023-12-20T10:29:50;3.33;;;1.57;;
6015;SDS011;3036;49.960;8.454;2023-12-20T10:32:21;4.07;;;2.33;;
6015;SDS011;3036;49.960;8.454;2023-12-20T10:34:49;3.37;;;2.10;;
6015;SDS011;3036;49.960;8.454;2023-12-20T10:37:16;3.33;;;1.83;;
6015;SDS011;3036;49.960;8.454;2023-12-20T10:39:45;7.30;;;1.40;;
6015;SDS011;3036;49.960;8.454;2023-12-20T10:42:15;2.03;;;1.20;;
6015;SDS011;3036;49.960;8.454;2023-12-20T10:44:42;2.57;;;1.97;;
6015;SDS011;3036;49.960;8.454;2023-12-20T10:47:09;2.53;;;1.47;;
6015;SDS011;3036;49.960;8.454;2023-12-20T10:49:38;4.97;;;2.50;;
6015;SDS011;3036;49.960;8.454;2023-12-20T10:52:06;2.43;;;1.50;;
6015;SDS011;3036;49.960;8.454;2023-12-20T10:54:33;2.10;;;1.63;;
6015;SDS011;3036;49.960;8.454;2023-12-20T10:57:01;3.87;;;1.67;;
6015;SDS011;3036;49.960;8.454;2023-12-20T10:59:31;2.00;;;1.00;;
6015;SDS011;3036;49.960;8.454;2023-12-20T11:01:59;2.60;;;1.10;;
6015;SDS011;3036;49.960;8.454;2023-12-20T11:04:31;5.40;;;1.13;;
6015;SDS011;3036;49.960;8.454;2023-12-20T11:07:03;1.90;;;1.20;;
6015;SDS011;3036;49.960;8.454;2023-12-20T11:09:34;4.60;;;1.47;;
6015;SDS011;3036;49.960;8.454;2023-12-20T11:12:06;4.37;;;1.90;;
6015;SDS011;3036;49.960;8.454;2023-12-20T11:14:39;3.57;;;1.20;;
6015;SDS011;3036;49.960;8.454;2023-12-20T11:17:08;2.40;;;1.47;;
6015;SDS011;3036;49.960;8.454;2023-12-20T11:19:36;4.07;;;1.83;;
6015;SDS011;3036;49.960;8.454;2023-12-20T11:22:04;2.10;;;1.10;;
6015;SDS011;3036;49.960;8.454;2023-12-20T11:24:32;3.73;;;1.93;;
6015;SDS011;3036;49.960;8.454;2023-12-20T11:27:03;2.53;;;1.87;;
6015;SDS011;3036;49.960;8.454;2023-12-20T11:29:32;2.37;;;2.23;;
6015;SDS011;3036;49.960;8.454;2023-12-20T11:32:00;2.93;;;1.90;;
6015;SDS011;3036;49.960;8.454;2023-12-20T11:34:28;4.47;;;1.63;;
6015;SDS011;3036;49.960;8.454;2023-12-20T11:36:58;4.90;;;1.20;;
6015;SDS011;3036;49.960;8.454;2023-12-20T11:39:26;1.87;;;1.20;;
6015;SDS011;3036;49.960;8.454;2023-12-20T11:41:54;2.47;;;1.10;;
6015;SDS011;3036;49.960;8.454;2023-12-20T11:44:22;3.87;;;1.50;;
6015;SDS011;3036;49.960;8.454;2023-12-20T11:46:50;2.13;;;1.83;;
6015;SDS011;3036;49.960;8.454;2023-12-20T11:49:19;6.20;;;2.37;;
6015;SDS011;3036;49.960;8.454;2023-12-20T11:51:49;2.53;;;1.77;;
6015;SDS011;3036;49.960;8.454;2023-12-20T11:54:16;5.57;;;2.30;;
6015;SDS011;3036;49.960;8.454;2023-12-20T11:56:43;7.77;;;3.10;;
6015;SDS011;3036;49.960;8.454;2023-12-20T11:59:10;3.70;;;3.03;;
6015;SDS011;3036;49.960;8.454;2023-12-20T12:01:37;6.00;;;2.50;;
6015;SDS011;3036;49.960;8.454;2023-12-20T12:04:06;8.33;;;2.50;;
6015;SDS011;3036;49.960;8.454;2023-12-20T12:06:33;1.70;;;1.40;;
6015;SDS011;3036;49.960;8.454;2023-12-20T12:09:00;3.60;;;1.43;;
6015;SDS011;3036;49.960;8.454;2023-12-20T12:11:29;6.17;;;1.33;;
6015;SDS011;3036;49.960;8.454;2023-12-20T12:13:56;1.90;;;1.23;;
6015;SDS011;3036;49.960;8.454;2023-12-20T12:16:23;3.30;;;1.30;;
6015;SDS011;3036;49.960;8.454;2023-12-20T12:18:56;3.93;;;1.90;;
6015;SDS011;3036;49.960;8.454;2023-12-20T12:21:25;1.27;;;1.23;;
6015;SDS011;3036;49.960;8.454;2023-12-20T12:23:52;2.03;;;1.43;;
6015;SDS011;3036;49.960;8.454;2023-12-20T12:26:19;2.63;;;1.13;;
6015;SDS011;3036;49.960;8.454;2023-12-20T12:28:46;1.93;;;0.90;;
6015;SDS011;3036;49.960;8.454;2023-12-20T12:31:13;3.77;;;1.60;;
6015;SDS011;3036;49.960;8.454;2023-12-20T12:33:41;5.20;;;1.30;;
6015;SDS011;3036;49.960;8.454;2023-12-20T12:36:09;3.33;;;1.47;;
6015;SDS011;3036;49.960;8.454;2023-12-20T12:38:38;5.40;;;2.33;;
6015;SDS011;3036;49.960;8.454;2023-12-20T12:41:05;2.40;;;1.30;;
6015;SDS011;3036;49.960;8.454;2023-12-20T12:43:32;1.30;;;1.20;;
6015;SDS011;3036;49.960;8.454;2023-12-20T12:45:59;2.43;;;1.50;;
6015;SDS011;3036;49.960;8.454;2023-12-20T12:48:27;3.13;;;1.60;;
6015;SDS011;3036;49.960;8.454;2023-12-20T12:50:54;3.23;;;2.00;;
6015;SDS011;3036;49.960;8.454;2023-12-20T12:53:24;2.50;;;1.43;;
6015;SDS011;3036;49.960;8.454;2023-12-20T12:55:53;7.27;;;1.43;;
6015;SDS011;3036;49.960;8.454;2023-12-20T12:58:20;2.80;;;1.40;;
6015;SDS011;3036;49.960;8.454;2023-12-20T13:00:47;4.67;;;1.67;;
6015;SDS011;3036;49.960;8.454;2023-12-20T13:03:14;2.80;;;1.50;;
6015;SDS011;3036;49.960;8.454;2023-12-20T13:05:42;3.00;;;1.57;;
6015;SDS011;3036;49.960;8.454;2023-12-20T13:08:09;2.13;;;1.40;;
6015;SDS011;3036;49.960;8.454;2023-12-20T13:10:37;2.57;;;1.47;;
6015;SDS011;3036;49.960;8.454;2023-12-20T13:13:05;1.80;;;1.70;;
6015;SDS011;3036;49.960;8.454;2023-12-20T13:15:32;3.27;;;2.07;;
6015;SDS011;3036;49.960;8.454;2023-12-20T13:17:59;3.70;;;1.37;;
6015;SDS011;3036;49.960;8.454;2023-12-20T13:20:27;1.33;;;0.90;;
6015;SDS011;3036;49.960;8.454;2023-12-20T13:22:54;1.80;;;1.70;;
6015;SDS011;3036;49.960;8.454;2023-12-20T13:25:21;2.97;;;1.40;;
6015;SDS011;3036;49.960;8.454;2023-12-20T13:27:48;2.87;;;1.43;;
6015;SDS011;3036;49.960;8.454;2023-12-20T13:30:17;3.17;;;1.37;;
6015;SDS011;3036;49.960;8.454;2023-12-20T13:32:44;4.70;;;1.50;;
6015;SDS011;3036;49.960;8.454;2023-12-20T13:35:11;1.40;;;1.30;;
6015;SDS011;3036;49.960;8.454;2023-12-20T13:37:38;7.80;;;1.50;;
6015;SDS011;3036;49.960;8.454;2023-12-20T13:40:06;3.30;;;1.57;;
6015;SDS011;3036;49.960;8.454;2023-12-20T13:42:33;3.83;;;1.60;;
6015;SDS011;3036;49.960;8.454;2023-12-20T13:45:00;3.23;;;1.30;;
6015;SDS011;3036;49.960;8.454;2023-12-20T13:47:31;4.00;;;1.10;;
6015;SDS011;3036;49.960;8.454;2023-12-20T13:49:58;2.40;;;1.77;;
6015;SDS011;3036;49.960;8.454;2023-12-20T13:52:25;2.27;;;1.13;;
6015;SDS011;3036;49.960;8.454;2023-12-20T13:54:52;2.37;;;1.23;;
6015;SDS011;3036;49.960;8.454;2023-12-20T13:57:19;2.73;;;1.17;;
6015;SDS011;3036;49.960;8.454;2023-12-20T13:59:46;3.13;;;1.10;;
6015;SDS011;3036;49.960;8.454;2023-12-20T14:02:13;0.80;;;0.80;;
6015;SDS011;3036;49.960;8.454;2023-12-20T14:04:42;0.60;;;0.60;;
6015;SDS011;3036;49.960;8.454;2023-12-20T14:07:09;4.23;;;1.30;;
6015;SDS011;3036;49.960;8.454;2023-12-20T14:09:36;1.37;;;1.03;;
6015;SDS011;3036;49.960;8.454;2023-12-20T14:12:04;1.80;;;1.20;;
6015;SDS011;3036;49.960;8.454;2023-12-20T14:14:31;2.40;;;1.40;;
6015;SDS011;3036;49.960;8.454;2023-12-20T14:16:58;2.63;;;1.10;;
6015;SDS011;3036;49.960;8.454;2023-12-20T14:19:25;1.50;;;1.40;;
6015;SDS011;3036;49.960;8.454;2023-12-20T14:21:54;3.20;;;1.37;;
6015;SDS011;3036;49.960;8.454;2023-12-20T14:24:21;1.23;;;1.10;;
6015;SDS011;3036;49.960;8.454;2023-12-20T14:26:48;1.60;;;1.00;;
6015;SDS011;3036;49.960;8.454;2023-12-20T14:29:15;2.27;;;1.43;;
6015;SDS011;3036;49.960;8.454;2023-12-20T14:31:42;3.33;;;1.50;;
6015;SDS011;3036;49.960;8.454;2023-12-20T14:34:09;2.73;;;1.17;;
6015;SDS011;3036;49.960;8.454;2023-12-20T14:36:36;2.63;;;0.70;;
6015;SDS011;3036;49.960;8.454;2023-12-20T14:39:05;3.70;;;0.90;;
6015;SDS011;3036;49.960;8.454;2023-12-20T14:41:33;1.17;;;0.77;;
6015;SDS011;3036;49.960;8.454;2023-12-20T14:44:00;1.23;;;1.00;;
6015;SDS011;3036;49.960;8.454;2023-12-20T14:46:29;3.53;;;1.40;;
6015;SDS011;3036;49.960;8.454;2023-12-20T14:48:56;2.80;;;1.10;;
6015;SDS011;3036;49.960;8.454;2023-12-20T14:51:23;1.67;;;1.10;;
6015;SDS011;3036;49.960;8.454;2023-12-20T14:53:50;4.90;;;1.60;;
6015;SDS011;3036;49.960;8.454;2023-12-20T14:56:19;2.97;;;1.10;;
6015;SDS011;3036;49.960;8.454;2023-12-20T14:58:46;1.00;;;0.97;;
6015;SDS011;3036;49.960;8.454;2023-12-20T15:01:16;2.67;;;0.90;;
6015;SDS011;3036;49.960;8.454;2023-12-20T15:03:46;4.53;;;1.03;;
6015;SDS011;3036;49.960;8.454;2023-12-20T15:06:13;2.70;;;1.37;;
6015;SDS011;3036;49.960;8.454;2023-12-20T15:08:40;2.60;;;1.07;;
6015;SDS011;3036;49.960;8.454;2023-12-20T15:11:07;2.97;;;1.20;;
6015;SDS011;3036;49.960;8.454;2023-12-20T15:13:35;1.33;;;1.15;;
6015;SDS011;3036;49.960;8.454;2023-12-20T15:16:03;2.27;;;1.13;;
6015;SDS011;3036;49.960;8.454;2023-12-20T15:18:30;3.17;;;1.20;;
6015;SDS011;3036;49.960;8.454;2023-12-20T15:20:57;2.43;;;1.67;;